sensor_id;sensor_type;location;lat;lon;timestamp;pressure;altitude;pressure_sealevel;temperature;humidity
36190;BME280;22232;50.914;13.858;2023-09-18T00:01:00;97621.69;;;19.85;99.45
36190;BME280;22232;50.914;13.858;2023-09-18T00:03:28;97620.09;;;19.84;99.36
36190;BME280;22232;50.914;13.858;2023-09-18T00:05:56;97618.41;;;19.69;100.00
36190;BME280;22232;50.914;13.858;2023-09-18T00:08:23;97619.00;;;19.66;100.00
36190;BME280;22232;50.914;13.858;2023-09-18T00:10:53;97616.56;;;19.65;100.00
36190;BME280;22232;50.914;13.858;2023-09-18T00:13:22;97617.44;;;19.41;100.00
36190;BME280;22232;50.914;13.858;2023-09-18T00:15:55;97611.81;;;19.38;100.00
36190;BME280;22232;50.914;13.858;2023-09-18T00:18:23;97600.34;;;19.27;100.00
36190;BME280;22232;50.914;13.858;2023-09-18T00:20:50;97605.75;;;19.27;100.00
36190;BME280;22232;50.914;13.858;2023-09-18T00:23:19;97597.69;;;19.22;100.00
36190;BME280;22232;50.914;13.858;2023-09-18T00:25:47;97602.31;;;19.21;100.00
36190;BME280;22232;50.914;13.858;2023-09-18T00:28:14;97595.06;;;19.17;100.00
36190;BME280;22232;50.914;13.858;2023-09-18T00:30:47;97595.88;;;19.17;100.00
36190;BME280;22232;50.914;13.858;2023-09-18T00:33:16;97594.13;;;19.27;100.00
36190;BME280;22232;50.914;13.858;2023-09-18T00:35:50;97602.22;;;19.08;100.00
36190;BME280;22232;50.914;13.858;2023-09-18T00:38:18;97605.50;;;19.05;100.00
36190;BME280;22232;50.914;13.858;2023-09-18T00:40:47;97595.56;;;19.00;100.00
36190;BME280;22232;50.914;13.858;2023-09-18T00:43:15;97595.56;;;19.00;100.00
36190;BME280;22232;50.914;13.858;2023-09-18T00:45:45;97596.94;;;18.97;100.00
36190;BME280;22232;50.914;13.858;2023-09-18T00:48:15;97592.56;;;19.01;100.00
36190;BME280;22232;50.914;13.858;2023-09-18T00:50:44;97584.81;;;18.95;100.00
36190;BME280;22232;50.914;13.858;2023-09-18T00:53:16;97589.06;;;19.01;100.00
36190;BME280;22232;50.914;13.858;2023-09-18T00:55:45;97577.75;;;18.99;100.00
36190;BME280;22232;50.914;13.858;2023-09-18T00:58:13;97586.06;;;19.02;100.00
36190;BME280;22232;50.914;13.858;2023-09-18T01:00:41;97571.41;;;19.09;100.00
36190;BME280;22232;50.914;13.858;2023-09-18T01:03:09;97566.72;;;19.14;100.00
36190;BME280;22232;50.914;13.858;2023-09-18T01:05:38;97573.50;;;19.31;100.00
36190;BME280;22232;50.914;13.858;2023-09-18T01:08:06;97556.63;;;19.39;100.00
36190;BME280;22232;50.914;13.858;2023-09-18T01:13:35;97552.44;;;19.46;100.00
36190;BME280;22232;50.914;13.858;2023-09-18T01:16:14;97548.06;;;19.32;100.00
36190;BME280;22232;50.914;13.858;2023-09-18T01:18:51;97540.50;;;19.15;100.00
36190;BME280;22232;50.914;13.858;2023-09-18T01:21:19;97536.03;;;19.05;100.00
36190;BME280;22232;50.914;13.858;2023-09-18T01:23:48;97535.06;;;18.96;100.00
36190;BME280;22232;50.914;13.858;2023-09-18T01:26:16;97539.97;;;18.94;100.00
36190;BME280;22232;50.914;13.858;2023-09-18T01:28:46;97532.44;;;18.91;100.00
36190;BME280;22232;50.914;13.858;2023-09-18T01:31:13;97525.16;;;18.91;100.00
36190;BME280;22232;50.914;13.858;2023-09-18T01:33:41;97535.63;;;18.74;100.00
36190;BME280;22232;50.914;13.858;2023-09-18T01:36:10;97532.59;;;18.56;100.00
36190;BME280;22232;50.914;13.858;2023-09-18T01:38:39;97529.13;;;18.32;100.00
36190;BME280;22232;50.914;13.858;2023-09-18T01:41:07;97531.69;;;18.18;100.00
36190;BME280;22232;50.914;13.858;2023-09-18T01:43:36;97526.28;;;18.18;100.00
36190;BME280;22232;50.914;13.858;2023-09-18T01:46:04;97523.69;;;18.08;100.00
36190;BME280;22232;50.914;13.858;2023-09-18T01:48:32;97521.72;;;18.14;100.00
36190;BME280;22232;50.914;13.858;2023-09-18T01:51:00;97512.00;;;18.18;100.00
36190;BME280;22232;50.914;13.858;2023-09-18T01:53:28;97511.75;;;18.14;100.00
36190;BME280;22232;50.914;13.858;2023-09-18T01:55:55;97505.03;;;18.11;100.00
36190;BME280;22232;50.914;13.858;2023-09-18T01:58:24;97512.84;;;18.13;100.00
36190;BME280;22232;50.914;13.858;2023-09-18T02:00:52;97514.69;;;18.18;100.00
36190;BME280;22232;50.914;13.858;2023-09-18T02:03:20;97501.25;;;18.13;100.00
36190;BME280;22232;50.914;13.858;2023-09-18T02:06:08;97506.78;;;17.97;100.00
36190;BME280;22232;50.914;13.858;2023-09-18T02:08:36;97497.44;;;17.90;100.00
36190;BME280;22232;50.914;13.858;2023-09-18T02:11:04;97511.06;;;17.74;100.00
36190;BME280;22232;50.914;13.858;2023-09-18T02:13:32;97511.84;;;17.75;100.00
36190;BME280;22232;50.914;13.858;2023-09-18T02:15:59;97504.47;;;17.85;100.00
36190;BME280;22232;50.914;13.858;2023-09-18T02:18:27;97501.78;;;17.85;100.00
36190;BME280;22232;50.914;13.858;2023-09-18T02:20:54;97489.19;;;17.76;100.00
36190;BME280;22232;50.914;13.858;2023-09-18T02:23:22;97495.94;;;17.78;100.00
36190;BME280;22232;50.914;13.858;2023-09-18T02:25:57;97473.28;;;17.74;100.00
36190;BME280;22232;50.914;13.858;2023-09-18T02:28:24;97471.16;;;17.71;100.00
36190;BME280;22232;50.914;13.858;2023-09-18T02:30:53;97469.25;;;17.72;100.00
36190;BME280;22232;50.914;13.858;2023-09-18T02:33:20;97476.97;;;17.54;100.00
36190;BME280;22232;50.914;13.858;2023-09-18T02:35:48;97472.94;;;17.52;100.00
36190;BME280;22232;50.914;13.858;2023-09-18T02:38:16;97476.53;;;17.42;100.00
36190;BME280;22232;50.914;13.858;2023-09-18T02:40:43;97470.63;;;17.40;100.00
36190;BME280;22232;50.914;13.858;2023-09-18T02:43:11;97473.13;;;17.31;100.00
36190;BME280;22232;50.914;13.858;2023-09-18T02:45:39;97465.66;;;17.23;100.00
36190;BME280;22232;50.914;13.858;2023-09-18T02:48:08;97461.59;;;17.26;100.00
36190;BME280;22232;50.914;13.858;2023-09-18T02:50:36;97465.41;;;17.19;100.00
36190;BME280;22232;50.914;13.858;2023-09-18T02:53:06;97462.72;;;17.19;100.00
36190;BME280;22232;50.914;13.858;2023-09-18T02:55:34;97459.72;;;17.21;100.00
36190;BME280;22232;50.914;13.858;2023-09-18T02:58:02;97462.16;;;17.23;100.00
36190;BME280;22232;50.914;13.858;2023-09-18T03:00:29;97459.16;;;17.24;100.00
36190;BME280;22232;50.914;13.858;2023-09-18T03:03:11;97455.91;;;17.27;100.00
36190;BME280;22232;50.914;13.858;2023-09-18T03:05:40;97457.34;;;17.19;100.00
36190;BME280;22232;50.914;13.858;2023-09-18T03:08:09;97455.94;;;17.22;100.00
36190;BME280;22232;50.914;13.858;2023-09-18T03:10:39;97452.97;;;17.24;100.00
36190;BME280;22232;50.914;13.858;2023-09-18T03:13:09;97454.34;;;17.21;100.00
36190;BME280;22232;50.914;13.858;2023-09-18T03:15:38;97452.22;;;17.18;100.00
36190;BME280;22232;50.914;13.858;2023-09-18T03:18:06;97451.19;;;17.14;100.00
36190;BME280;22232;50.914;13.858;2023-09-18T03:20:35;97455.50;;;17.10;100.00
36190;BME280;22232;50.914;13.858;2023-09-18T03:23:02;97446.38;;;17.06;100.00
36190;BME280;22232;50.914;13.858;2023-09-18T03:25:30;97441.56;;;17.03;100.00
36190;BME280;22232;50.914;13.858;2023-09-18T03:28:17;97440.75;;;17.02;100.00
36190;BME280;22232;50.914;13.858;2023-09-18T03:30:45;97442.22;;;17.18;100.00
36190;BME280;22232;50.914;13.858;2023-09-18T03:33:13;97440.16;;;17.39;100.00
36190;BME280;22232;50.914;13.858;2023-09-18T03:35:47;97425.50;;;17.51;100.00
36190;BME280;22232;50.914;13.858;2023-09-18T03:38:20;97418.63;;;17.63;100.00
36190;BME280;22232;50.914;13.858;2023-09-18T03:40:48;97416.41;;;17.71;100.00
36190;BME280;22232;50.914;13.858;2023-09-18T03:43:16;97417.34;;;17.56;100.00
36190;BME280;22232;50.914;13.858;2023-09-18T03:45:45;97420.38;;;17.49;100.00
36190;BME280;22232;50.914;13.858;2023-09-18T03:48:13;97428.00;;;17.42;100.00
36190;BME280;22232;50.914;13.858;2023-09-18T03:50:41;97421.50;;;17.48;100.00
36190;BME280;22232;50.914;13.858;2023-09-18T03:53:09;97420.13;;;17.51;100.00
36190;BME280;22232;50.914;13.858;2023-09-18T03:55:37;97407.13;;;17.53;100.00
36190;BME280;22232;50.914;13.858;2023-09-18T03:58:05;97409.56;;;17.54;100.00
36190;BME280;22232;50.914;13.858;2023-09-18T04:00:33;97414.97;;;17.54;100.00
36190;BME280;22232;50.914;13.858;2023-09-18T04:03:01;97406.34;;;17.52;100.00
36190;BME280;22232;50.914;13.858;2023-09-18T04:05:28;97402.03;;;17.51;100.00
36190;BME280;22232;50.914;13.858;2023-09-18T04:07:57;97401.84;;;17.42;100.00
36190;BME280;22232;50.914;13.858;2023-09-18T04:10:26;97405.66;;;17.41;100.00
36190;BME280;22232;50.914;13.858;2023-09-18T04:12:53;97407.81;;;17.39;100.00
36190;BME280;22232;50.914;13.858;2023-09-18T04:15:21;97409.41;;;17.40;100.00
36190;BME280;22232;50.914;13.858;2023-09-18T04:17:49;97402.16;;;17.41;100.00
36190;BME280;22232;50.914;13.858;2023-09-18T04:20:17;97409.09;;;17.47;100.00
36190;BME280;22232;50.914;13.858;2023-09-18T04:22:47;97409.34;;;17.51;100.00
36190;BME280;22232;50.914;13.858;2023-09-18T04:25:18;97398.81;;;17.49;100.00
36190;BME280;22232;50.914;13.858;2023-09-18T04:27:47;97402.81;;;17.57;100.00
36190;BME280;22232;50.914;13.858;2023-09-18T04:30:17;97393.59;;;17.58;100.00
36190;BME280;22232;50.914;13.858;2023-09-18T04:32:48;97396.66;;;17.75;100.00
36190;BME280;22232;50.914;13.858;2023-09-18T04:35:16;97387.16;;;17.83;100.00
36190;BME280;22232;50.914;13.858;2023-09-18T04:37:44;97378.97;;;17.93;100.00
36190;BME280;22232;50.914;13.858;2023-09-18T04:40:11;97377.63;;;17.91;100.00
36190;BME280;22232;50.914;13.858;2023-09-18T04:42:41;97388.13;;;17.92;100.00
36190;BME280;22232;50.914;13.858;2023-09-18T04:45:10;97386.75;;;17.95;100.00
36190;BME280;22232;50.914;13.858;2023-09-18T04:47:38;97388.28;;;18.01;100.00
36190;BME280;22232;50.914;13.858;2023-09-18T04:50:06;97389.25;;;18.10;100.00
36190;BME280;22232;50.914;13.858;2023-09-18T04:52:40;97381.84;;;18.21;100.00
36190;BME280;22232;50.914;13.858;2023-09-18T04:55:13;97383.59;;;18.49;100.00
36190;BME280;22232;50.914;13.858;2023-09-18T04:57:41;97385.38;;;18.78;100.00
36190;BME280;22232;50.914;13.858;2023-09-18T05:00:08;97381.00;;;19.15;100.00
36190;BME280;22232;50.914;13.858;2023-09-18T05:02:45;97378.94;;;19.39;100.00
36190;BME280;22232;50.914;13.858;2023-09-18T05:05:13;97373.59;;;19.67;100.00
36190;BME280;22232;50.914;13.858;2023-09-18T05:07:42;97381.41;;;19.82;100.00
36190;BME280;22232;50.914;13.858;2023-09-18T05:10:10;97377.13;;;19.81;100.00
36190;BME280;22232;50.914;13.858;2023-09-18T05:12:39;97367.66;;;19.65;100.00
36190;BME280;22232;50.914;13.858;2023-09-18T05:15:08;97363.63;;;19.62;100.00
36190;BME280;22232;50.914;13.858;2023-09-18T05:17:47;97366.44;;;19.57;100.00
36190;BME280;22232;50.914;13.858;2023-09-18T05:20:16;97364.81;;;19.42;100.00
36190;BME280;22232;50.914;13.858;2023-09-18T05:22:45;97364.06;;;19.23;100.00
36190;BME280;22232;50.914;13.858;2023-09-18T05:25:13;97355.88;;;19.28;100.00
36190;BME280;22232;50.914;13.858;2023-09-18T05:27:43;97354.38;;;19.22;100.00
36190;BME280;22232;50.914;13.858;2023-09-18T05:30:14;97348.78;;;19.32;100.00
36190;BME280;22232;50.914;13.858;2023-09-18T05:32:43;97341.00;;;19.58;100.00
36190;BME280;22232;50.914;13.858;2023-09-18T05:35:11;97325.47;;;19.64;100.00
36190;BME280;22232;50.914;13.858;2023-09-18T05:37:41;97329.84;;;19.60;100.00
36190;BME280;22232;50.914;13.858;2023-09-18T05:40:10;97336.91;;;19.75;100.00
36190;BME280;22232;50.914;13.858;2023-09-18T05:42:40;97331.41;;;19.80;100.00
36190;BME280;22232;50.914;13.858;2023-09-18T05:45:14;97336.72;;;19.85;100.00
36190;BME280;22232;50.914;13.858;2023-09-18T05:47:44;97330.38;;;19.89;100.00
36190;BME280;22232;50.914;13.858;2023-09-18T05:50:13;97334.78;;;19.99;100.00
36190;BME280;22232;50.914;13.858;2023-09-18T05:52:45;97326.56;;;20.04;100.00
36190;BME280;22232;50.914;13.858;2023-09-18T05:55:14;97327.06;;;19.92;100.00
36190;BME280;22232;50.914;13.858;2023-09-18T05:57:42;97329.53;;;20.16;100.00
36190;BME280;22232;50.914;13.858;2023-09-18T06:00:10;97331.91;;;20.32;100.00
36190;BME280;22232;50.914;13.858;2023-09-18T06:02:41;97323.66;;;20.73;100.00
36190;BME280;22232;50.914;13.858;2023-09-18T06:08:56;97302.66;;;20.79;100.00
36190;BME280;22232;50.914;13.858;2023-09-18T06:11:23;97302.22;;;20.85;100.00
36190;BME280;22232;50.914;13.858;2023-09-18T06:13:51;97299.00;;;21.06;100.00
36190;BME280;22232;50.914;13.858;2023-09-18T06:16:18;97307.81;;;20.89;100.00
36190;BME280;22232;50.914;13.858;2023-09-18T06:18:46;97304.88;;;21.08;100.00
36190;BME280;22232;50.914;13.858;2023-09-18T06:21:14;97304.88;;;21.08;100.00
36190;BME280;22232;50.914;13.858;2023-09-18T06:23:41;97298.72;;;21.47;100.00
36190;BME280;22232;50.914;13.858;2023-09-18T06:26:09;97293.19;;;21.79;100.00
36190;BME280;22232;50.914;13.858;2023-09-18T06:28:36;97299.72;;;21.69;100.00
36190;BME280;22232;50.914;13.858;2023-09-18T06:31:04;97288.56;;;21.70;99.72
36190;BME280;22232;50.914;13.858;2023-09-18T06:33:31;97288.31;;;21.98;97.68
36190;BME280;22232;50.914;13.858;2023-09-18T06:35:59;97277.13;;;21.99;100.00
36190;BME280;22232;50.914;13.858;2023-09-18T06:38:27;97278.31;;;22.25;99.02
36190;BME280;22232;50.914;13.858;2023-09-18T06:40:55;97268.78;;;21.79;98.99
36190;BME280;22232;50.914;13.858;2023-09-18T06:43:22;97268.59;;;21.66;100.00
36190;BME280;22232;50.914;13.858;2023-09-18T06:45:50;97261.66;;;22.17;99.09
36190;BME280;22232;50.914;13.858;2023-09-18T06:48:18;97261.38;;;22.28;95.60
36190;BME280;22232;50.914;13.858;2023-09-18T06:50:45;97263.81;;;23.02;92.18
36190;BME280;22232;50.914;13.858;2023-09-18T06:53:13;97251.31;;;23.10;88.78
36190;BME280;22232;50.914;13.858;2023-09-18T06:55:40;97248.34;;;23.62;87.21
36190;BME280;22232;50.914;13.858;2023-09-18T06:58:08;97248.66;;;23.61;84.77
36190;BME280;22232;50.914;13.858;2023-09-18T07:00:36;97246.72;;;23.70;81.93
36190;BME280;22232;50.914;13.858;2023-09-18T07:03:04;97250.88;;;23.97;84.91
36190;BME280;22232;50.914;13.858;2023-09-18T07:05:32;97244.88;;;24.45;79.34
36190;BME280;22232;50.914;13.858;2023-09-18T07:07:59;97240.88;;;24.64;78.53
36190;BME280;22232;50.914;13.858;2023-09-18T07:10:27;97238.16;;;24.76;75.41
36190;BME280;22232;50.914;13.858;2023-09-18T07:12:54;97241.59;;;24.85;73.04
36190;BME280;22232;50.914;13.858;2023-09-18T07:15:22;97227.72;;;25.36;73.96
36190;BME280;22232;50.914;13.858;2023-09-18T07:17:49;97235.97;;;25.03;71.79
36190;BME280;22232;50.914;13.858;2023-09-18T07:20:17;97231.44;;;25.19;72.47
36190;BME280;22232;50.914;13.858;2023-09-18T07:22:47;97234.84;;;25.28;70.46
36190;BME280;22232;50.914;13.858;2023-09-18T07:25:17;97229.97;;;25.58;67.69
36190;BME280;22232;50.914;13.858;2023-09-18T07:27:45;97217.53;;;25.73;69.12
36190;BME280;22232;50.914;13.858;2023-09-18T07:30:14;97224.41;;;25.43;67.84
36190;BME280;22232;50.914;13.858;2023-09-18T07:32:47;97222.69;;;25.26;69.66
36190;BME280;22232;50.914;13.858;2023-09-18T07:35:14;97215.06;;;25.56;68.72
36190;BME280;22232;50.914;13.858;2023-09-18T07:37:43;97219.59;;;25.64;68.37
36190;BME280;22232;50.914;13.858;2023-09-18T07:40:12;97203.03;;;25.45;65.70
36190;BME280;22232;50.914;13.858;2023-09-18T07:42:40;97207.66;;;25.44;66.64
36190;BME280;22232;50.914;13.858;2023-09-18T07:45:07;97205.97;;;25.39;66.19
36190;BME280;22232;50.914;13.858;2023-09-18T07:47:35;97203.81;;;25.21;68.53
36190;BME280;22232;50.914;13.858;2023-09-18T07:50:03;97199.00;;;24.93;66.86
36190;BME280;22232;50.914;13.858;2023-09-18T07:52:31;97196.28;;;25.05;68.17
36190;BME280;22232;50.914;13.858;2023-09-18T07:54:59;97196.84;;;24.86;70.00
36190;BME280;22232;50.914;13.858;2023-09-18T07:57:27;97190.72;;;25.02;69.68
36190;BME280;22232;50.914;13.858;2023-09-18T07:59:57;97192.63;;;25.01;69.54
36190;BME280;22232;50.914;13.858;2023-09-18T08:02:25;97195.41;;;25.26;67.53
36190;BME280;22232;50.914;13.858;2023-09-18T08:04:56;97190.94;;;25.09;67.19
36190;BME280;22232;50.914;13.858;2023-09-18T08:07:23;97188.56;;;25.44;68.35
36190;BME280;22232;50.914;13.858;2023-09-18T08:09:51;97175.81;;;25.60;66.69
36190;BME280;22232;50.914;13.858;2023-09-18T08:12:19;97171.16;;;26.01;64.85
36190;BME280;22232;50.914;13.858;2023-09-18T08:14:46;97178.84;;;25.71;63.94
36190;BME280;22232;50.914;13.858;2023-09-18T08:17:14;97186.81;;;25.89;63.60
36190;BME280;22232;50.914;13.858;2023-09-18T08:19:42;97182.00;;;25.98;63.83
36190;BME280;22232;50.914;13.858;2023-09-18T08:22:11;97183.06;;;26.21;62.65
36190;BME280;22232;50.914;13.858;2023-09-18T08:24:42;97194.06;;;25.97;62.34
36190;BME280;22232;50.914;13.858;2023-09-18T08:27:14;97190.91;;;26.23;61.57
36190;BME280;22232;50.914;13.858;2023-09-18T08:29:46;97186.59;;;26.22;62.55
36190;BME280;22232;50.914;13.858;2023-09-18T08:32:14;97192.31;;;26.45;62.16
36190;BME280;22232;50.914;13.858;2023-09-18T08:34:42;97196.13;;;26.56;61.70
36190;BME280;22232;50.914;13.858;2023-09-18T08:37:10;97189.47;;;26.13;62.16
36190;BME280;22232;50.914;13.858;2023-09-18T08:39:37;97190.16;;;26.38;60.54
36190;BME280;22232;50.914;13.858;2023-09-18T08:42:07;97188.38;;;26.58;59.07
36190;BME280;22232;50.914;13.858;2023-09-18T08:44:38;97178.44;;;26.09;57.55
36190;BME280;22232;50.914;13.858;2023-09-18T08:47:08;97191.09;;;26.02;58.08
36190;BME280;22232;50.914;13.858;2023-09-18T08:49:37;97179.53;;;26.49;58.90
36190;BME280;22232;50.914;13.858;2023-09-18T08:52:06;97179.25;;;26.26;57.85
36190;BME280;22232;50.914;13.858;2023-09-18T08:54:34;97171.81;;;25.82;59.38
36190;BME280;22232;50.914;13.858;2023-09-18T08:57:01;97154.63;;;26.10;61.03
36190;BME280;22232;50.914;13.858;2023-09-18T08:59:30;97155.28;;;25.79;60.81
36190;BME280;22232;50.914;13.858;2023-09-18T09:01:58;97162.78;;;26.22;61.21
36190;BME280;22232;50.914;13.858;2023-09-18T09:04:26;97152.69;;;26.39;59.92
36190;BME280;22232;50.914;13.858;2023-09-18T09:06:54;97151.41;;;26.80;62.50
36190;BME280;22232;50.914;13.858;2023-09-18T09:09:25;97147.69;;;27.04;58.50
36190;BME280;22232;50.914;13.858;2023-09-18T09:11:57;97149.84;;;26.63;58.52
36190;BME280;22232;50.914;13.858;2023-09-18T09:14:24;97145.06;;;26.60;59.74
36190;BME280;22232;50.914;13.858;2023-09-18T09:16:58;97134.75;;;26.85;58.37
36190;BME280;22232;50.914;13.858;2023-09-18T09:19:34;97126.69;;;27.24;58.00
36190;BME280;22232;50.914;13.858;2023-09-18T09:22:06;97121.75;;;26.98;58.27
36190;BME280;22232;50.914;13.858;2023-09-18T09:24:43;97122.53;;;26.98;59.73
36190;BME280;22232;50.914;13.858;2023-09-18T09:27:10;97122.28;;;27.04;59.06
36190;BME280;22232;50.914;13.858;2023-09-18T09:29:38;97135.25;;;26.59;57.68
36190;BME280;22232;50.914;13.858;2023-09-18T09:32:16;97135.72;;;26.61;58.75
36190;BME280;22232;50.914;13.858;2023-09-18T09:34:45;97128.47;;;27.00;58.51
36190;BME280;22232;50.914;13.858;2023-09-18T09:37:13;97125.63;;;27.29;57.03
36190;BME280;22232;50.914;13.858;2023-09-18T09:39:51;97121.09;;;27.36;57.57
36190;BME280;22232;50.914;13.858;2023-09-18T09:42:20;97122.13;;;27.48;56.29
36190;BME280;22232;50.914;13.858;2023-09-18T09:45:04;97124.75;;;26.77;57.28
36190;BME280;22232;50.914;13.858;2023-09-18T09:47:35;97121.06;;;26.85;58.82
36190;BME280;22232;50.914;13.858;2023-09-18T09:50:11;97126.25;;;27.06;59.17
36190;BME280;22232;50.914;13.858;2023-09-18T09:52:50;97126.97;;;27.54;58.16
36190;BME280;22232;50.914;13.858;2023-09-18T09:55:22;97127.59;;;27.83;55.48
36190;BME280;22232;50.914;13.858;2023-09-18T09:57:52;97130.88;;;28.50;54.53
36190;BME280;22232;50.914;13.858;2023-09-18T10:00:20;97137.38;;;28.23;54.81
36190;BME280;22232;50.914;13.858;2023-09-18T10:02:57;97137.72;;;27.79;54.63
36190;BME280;22232;50.914;13.858;2023-09-18T10:05:33;97135.78;;;27.28;55.06
36190;BME280;22232;50.914;13.858;2023-09-18T10:08:12;97141.81;;;27.18;56.51
36190;BME280;22232;50.914;13.858;2023-09-18T10:10:47;97130.88;;;27.18;56.88
36190;BME280;22232;50.914;13.858;2023-09-18T10:13:27;97139.94;;;27.22;58.62
36190;BME280;22232;50.914;13.858;2023-09-18T10:15:56;97136.91;;;27.62;57.88
36190;BME280;22232;50.914;13.858;2023-09-18T10:19:11;97147.13;;;27.46;55.75
36190;BME280;22232;50.914;13.858;2023-09-18T10:21:38;97169.22;;;27.88;56.73
36190;BME280;22232;50.914;13.858;2023-09-18T10:24:20;97183.22;;;28.22;56.82
36190;BME280;22232;50.914;13.858;2023-09-18T10:26:58;97197.78;;;28.26;56.17
36190;BME280;22232;50.914;13.858;2023-09-18T10:29:27;97185.59;;;28.43;55.80
36190;BME280;22232;50.914;13.858;2023-09-18T10:31:56;97188.75;;;28.65;55.68
36190;BME280;22232;50.914;13.858;2023-09-18T10:34:24;97182.78;;;28.82;54.19
36190;BME280;22232;50.914;13.858;2023-09-18T10:36:53;97190.72;;;28.45;55.41
36190;BME280;22232;50.914;13.858;2023-09-18T10:39:23;97192.13;;;28.39;55.66
36190;BME280;22232;50.914;13.858;2023-09-18T10:41:54;97196.91;;;28.03;56.66
36190;BME280;22232;50.914;13.858;2023-09-18T10:44:23;97200.59;;;27.91;57.24
36190;BME280;22232;50.914;13.858;2023-09-18T10:46:51;97187.97;;;27.71;58.30
36190;BME280;22232;50.914;13.858;2023-09-18T10:49:20;97170.66;;;28.02;60.13
36190;BME280;22232;50.914;13.858;2023-09-18T10:51:48;97175.34;;;28.21;58.84
36190;BME280;22232;50.914;13.858;2023-09-18T10:54:22;97171.88;;;27.85;58.84
36190;BME280;22232;50.914;13.858;2023-09-18T10:56:51;97166.63;;;27.60;59.20
36190;BME280;22232;50.914;13.858;2023-09-18T10:59:20;97166.25;;;27.27;61.09
36190;BME280;22232;50.914;13.858;2023-09-18T11:01:50;97166.16;;;27.07;62.08
36190;BME280;22232;50.914;13.858;2023-09-18T11:04:21;97164.75;;;26.97;62.82
36190;BME280;22232;50.914;13.858;2023-09-18T11:09:25;97166.25;;;26.79;65.39
36190;BME280;22232;50.914;13.858;2023-09-18T11:17:38;97164.31;;;26.95;64.63
36190;BME280;22232;50.914;13.858;2023-09-18T11:20:16;97155.56;;;27.06;65.44
36190;BME280;22232;50.914;13.858;2023-09-18T11:22:49;97149.28;;;26.58;65.31
36190;BME280;22232;50.914;13.858;2023-09-18T11:25:39;97152.06;;;26.29;66.34
36190;BME280;22232;50.914;13.858;2023-09-18T11:28:17;97152.19;;;25.93;67.71
36190;BME280;22232;50.914;13.858;2023-09-18T11:30:53;97163.47;;;25.79;68.38
36190;BME280;22232;50.914;13.858;2023-09-18T11:33:39;97155.81;;;25.56;70.88
36190;BME280;22232;50.914;13.858;2023-09-18T11:38:51;97163.81;;;25.90;71.36
36190;BME280;22232;50.914;13.858;2023-09-18T11:41:26;97181.22;;;25.97;72.48
36190;BME280;22232;50.914;13.858;2023-09-18T11:46:34;97178.22;;;26.59;68.15
36190;BME280;22232;50.914;13.858;2023-09-18T11:49:03;97165.75;;;27.21;65.74
36190;BME280;22232;50.914;13.858;2023-09-18T11:51:34;97172.13;;;27.60;63.32
36190;BME280;22232;50.914;13.858;2023-09-18T11:54:03;97169.91;;;27.50;62.41
36190;BME280;22232;50.914;13.858;2023-09-18T11:56:33;97173.59;;;27.93;64.05
36190;BME280;22232;50.914;13.858;2023-09-18T11:59:01;97169.75;;;27.43;60.99
36190;BME280;22232;50.914;13.858;2023-09-18T12:01:32;97160.19;;;27.53;62.72
36190;BME280;22232;50.914;13.858;2023-09-18T12:04:13;97160.84;;;27.65;64.66
36190;BME280;22232;50.914;13.858;2023-09-18T12:06:42;97146.88;;;27.71;63.52
36190;BME280;22232;50.914;13.858;2023-09-18T12:09:12;97139.72;;;27.66;63.69
36190;BME280;22232;50.914;13.858;2023-09-18T12:11:41;97140.78;;;27.42;64.58
36190;BME280;22232;50.914;13.858;2023-09-18T12:14:09;97146.22;;;26.91;66.14
36190;BME280;22232;50.914;13.858;2023-09-18T12:16:37;97136.06;;;26.75;68.53
36190;BME280;22232;50.914;13.858;2023-09-18T12:19:16;97129.53;;;27.12;64.10
36190;BME280;22232;50.914;13.858;2023-09-18T12:21:46;97133.75;;;27.60;63.65
36190;BME280;22232;50.914;13.858;2023-09-18T12:24:22;97130.72;;;27.65;60.44
36190;BME280;22232;50.914;13.858;2023-09-18T12:26:54;97128.69;;;27.62;61.81
36190;BME280;22232;50.914;13.858;2023-09-18T12:29:22;97125.97;;;27.62;62.09
36190;BME280;22232;50.914;13.858;2023-09-18T12:31:50;97134.09;;;27.39;62.69
36190;BME280;22232;50.914;13.858;2023-09-18T12:34:21;97135.34;;;27.61;63.31
36190;BME280;22232;50.914;13.858;2023-09-18T12:36:50;97141.31;;;27.83;61.95
36190;BME280;22232;50.914;13.858;2023-09-18T12:39:18;97141.31;;;27.83;59.62
36190;BME280;22232;50.914;13.858;2023-09-18T12:41:48;97148.06;;;27.54;60.26
36190;BME280;22232;50.914;13.858;2023-09-18T12:44:16;97141.09;;;27.56;59.43
36190;BME280;22232;50.914;13.858;2023-09-18T12:46:44;97150.16;;;27.76;59.75
36190;BME280;22232;50.914;13.858;2023-09-18T12:49:17;97151.66;;;27.74;60.84
36190;BME280;22232;50.914;13.858;2023-09-18T12:51:57;97157.53;;;27.92;62.01
36190;BME280;22232;50.914;13.858;2023-09-18T12:54:57;97144.53;;;28.08;59.67
36190;BME280;22232;50.914;13.858;2023-09-18T12:57:26;97142.88;;;28.23;61.05
36190;BME280;22232;50.914;13.858;2023-09-18T12:59:54;97143.44;;;28.32;60.08
36190;BME280;22232;50.914;13.858;2023-09-18T13:02:22;97139.13;;;27.73;61.87
36190;BME280;22232;50.914;13.858;2023-09-18T13:04:56;97140.06;;;27.45;61.84
36190;BME280;22232;50.914;13.858;2023-09-18T13:07:24;97147.03;;;27.58;62.95
36190;BME280;22232;50.914;13.858;2023-09-18T13:10:00;97142.31;;;27.39;63.32
36190;BME280;22232;50.914;13.858;2023-09-18T13:12:47;97130.94;;;27.21;66.36
36190;BME280;22232;50.914;13.858;2023-09-18T13:15:31;97128.88;;;27.34;65.42
36190;BME280;22232;50.914;13.858;2023-09-18T13:18:09;97127.13;;;27.26;65.29
36190;BME280;22232;50.914;13.858;2023-09-18T13:20:38;97126.47;;;27.49;66.82